Time,TemperatureF,DewpointF,PressureIn,WindDirection,WindDirectionDegrees,WindSpeedMPH,WindSpeedGustMPH,Humidity,HourlyPrecipIn,Conditions,Clouds,dailyrainin,SoftwareType,DateUTC
2013-06-24 00:07:00,57.0,-99.9,29.83,WSW,256,8.0,11.0,-999,-99.99,,,-99.99,,2013-06-24 07:07:00,
2013-06-24 00:16:00,58.0,-99.9,29.83,SW,234,5.0,9.0,-999,-99.99,,,-99.99,,2013-06-24 07:16:00,
2013-06-24 00:38:00,58.0,-99.9,29.83,SW,222,4.0,7.0,-999,-99.99,,,-99.99,,2013-06-24 07:38:00,
2013-06-24 00:49:00,58.0,-99.9,29.83,SW,226,4.0,7.0,-999,-99.99,,,-99.99,,2013-06-24 07:49:00,
2013-06-24 00:58:00,58.0,-99.9,29.83,SW,227,4.0,9.0,-999,-99.99,,,-99.99,,2013-06-24 07:58:00,
2013-06-24 01:28:00,58.0,-99.9,29.83,SW,218,5.0,8.0,-999,-99.99,,,-99.99,,2013-06-24 08:28:00,
2013-06-24 01:37:00,58.0,-99.9,29.83,SW,218,5.0,8.0,-999,-99.99,,,-99.99,,2013-06-24 08:37:00,
2013-06-24 01:56:00,57.0,-99.9,29.81,SSE,157,7.0,9.0,-999,-99.99,,,-99.99,,2013-06-24 08:56:00,
2013-06-24 02:08:00,56.0,-99.9,29.81,South,172,9.0,11.0,-999,-99.99,,,-99.99,,2013-06-24 09:08:00,
2013-06-24 02:16:00,56.0,-99.9,29.81,South,170,9.0,11.0,-999,-99.99,,,-99.99,,2013-06-24 09:16:00,
2013-06-24 03:00:00,57.0,-99.9,29.82,SSE,155,6.0,9.0,-999,-99.99,,,-99.99,,2013-06-24 10:00:00,
2013-06-24 03:15:00,57.0,-99.9,29.81,South,170,6.0,9.0,-999,-99.99,,,-99.99,,2013-06-24 10:15:00,
2013-06-24 03:25:00,57.0,-99.9,29.81,South,170,6.0,9.0,-999,-99.99,,,-99.99,,2013-06-24 10:25:00,
2013-06-24 03:52:00,57.0,-99.9,29.80,South,170,7.0,9.0,-999,-99.99,,,-99.99,,2013-06-24 10:52:00,
2013-06-24 03:59:00,56.0,-99.9,29.80,South,172,8.0,11.0,-999,-99.99,,,-99.99,,2013-06-24 10:59:00,
2013-06-24 04:04:00,56.0,-99.9,29.80,South,172,9.0,11.0,-999,-99.99,,,-99.99,,2013-06-24 11:04:00,
2013-06-24 04:29:00,56.0,-99.9,29.80,South,170,8.0,10.0,-999,-99.99,,,-99.99,,2013-06-24 11:29:00,
2013-06-24 04:36:00,56.0,-99.9,29.81,South,169,9.0,11.0,-999,-99.99,,,-99.99,,2013-06-24 11:36:00,
2013-06-24 04:51:00,56.0,-99.9,29.81,SSE,167,8.0,10.0,-999,-99.99,,,-99.99,,2013-06-24 11:51:00,
2013-06-24 04:58:00,56.0,-99.9,29.81,SSE,164,8.0,11.0,-999,-99.99,,,-99.99,,2013-06-24 11:58:00,
2013-06-24 05:07:00,56.0,-99.9,29.81,SSE,162,7.0,9.0,-999,-99.99,,,-99.99,,2013-06-24 12:07:00,
2013-06-24 05:17:00,56.0,-99.9,29.81,SSE,162,7.0,9.0,-999,-99.99,,,-99.99,,2013-06-24 12:17:00,
2013-06-24 05:37:00,56.0,-99.9,29.83,SSW,202,6.0,9.0,-999,-99.99,,,-99.99,,2013-06-24 12:37:00,
2013-06-24 05:49:00,56.0,-99.9,29.82,SSW,197,7.0,9.0,-999,-99.99,,,-99.99,,2013-06-24 12:49:00,
2013-06-24 06:14:00,56.0,-99.9,29.82,SSW,205,6.0,10.0,-999,-99.99,,,-99.99,,2013-06-24 13:14:00,
2013-06-24 06:58:00,56.0,-99.9,29.84,SW,220,4.0,9.0,-999,-99.99,,,-99.99,,2013-06-24 13:58:00,
2013-06-24 07:25:00,56.0,-99.9,29.84,WNW,283,2.0,5.0,-999,-99.99,,,-99.99,,2013-06-24 14:25:00,
2013-06-24 07:38:00,56.0,-99.9,29.84,WNW,290,4.0,10.0,-999,-99.99,,,-99.99,,2013-06-24 14:38:00,
2013-06-24 08:00:00,57.0,-99.9,29.84,WNW,283,2.0,7.0,-999,-99.99,,,-99.99,,2013-06-24 15:00:00,
2013-06-24 08:06:00,57.0,-99.9,29.84,SW,223,3.0,6.0,-999,-99.99,,,-99.99,,2013-06-24 15:06:00,
2013-06-24 08:27:00,57.0,-99.9,29.84,SSW,213,4.0,7.0,-999,-99.99,,,-99.99,,2013-06-24 15:27:00,
2013-06-24 08:49:00,58.0,-99.9,29.84,SW,218,5.0,8.0,-999,-99.99,,,-99.99,,2013-06-24 15:49:00,
2013-06-24 08:57:00,57.0,-99.9,29.85,SSW,205,5.0,7.0,-999,-99.99,,,-99.99,,2013-06-24 15:57:00,
2013-06-24 09:05:00,58.0,-99.9,29.86,SW,219,4.0,6.0,-999,-99.99,,,-99.99,,2013-06-24 16:05:00,
2013-06-24 09:25:00,58.0,-99.9,29.86,SSW,211,7.0,11.0,-999,-99.99,,,-99.99,,2013-06-24 16:25:00,
2013-06-24 09:36:00,58.0,-99.9,29.86,SSW,205,8.0,11.0,-999,-99.99,,,-99.99,,2013-06-24 16:36:00,
2013-06-24 10:07:00,58.0,-99.9,29.86,South,188,6.0,9.0,-999,-99.99,,,-99.99,,2013-06-24 17:07:00,
2013-06-24 10:25:00,58.0,-99.9,29.88,SSW,202,6.0,9.0,-999,-99.99,,,-99.99,,2013-06-24 17:25:00,
2013-06-24 10:36:00,58.0,-99.9,29.88,SSW,197,5.0,7.0,-999,-99.99,,,-99.99,,2013-06-24 17:36:00,
2013-06-24 10:48:00,58.0,-99.9,29.88,SSW,196,4.0,6.0,-999,-99.99,,,-99.99,,2013-06-24 17:48:00,
2013-06-24 10:57:00,58.0,-99.9,29.88,South,181,3.0,5.0,-999,-99.99,,,-99.99,,2013-06-24 17:57:00,
2013-06-24 11:03:00,58.0,-99.9,29.88,SSW,213,3.0,5.0,-999,-99.99,,,-99.99,,2013-06-24 18:03:00,
2013-06-24 11:37:00,58.0,-99.9,29.89,SSW,210,2.0,6.0,-999,-99.99,,,-99.99,,2013-06-24 18:37:00,
2013-06-24 12:07:00,59.0,-99.9,29.90,SW,235,3.0,7.0,-999,-99.99,,,-99.99,,2013-06-24 19:07:00,
2013-06-24 12:13:00,59.0,-99.9,29.90,WSW,252,2.0,4.0,-999,-99.99,,,-99.99,,2013-06-24 19:13:00,
2013-06-24 12:37:00,59.0,-99.9,29.90,SSW,204,3.0,6.0,-999,-99.99,,,-99.99,,2013-06-24 19:37:00,
2013-06-24 12:57:00,60.0,-99.9,29.90,SW,217,3.0,5.0,-999,-99.99,,,-99.99,,2013-06-24 19:57:00,
2013-06-24 13:06:00,59.0,-99.9,29.90,SW,234,2.0,6.0,-999,-99.99,,,-99.99,,2013-06-24 20:06:00,
2013-06-24 13:34:00,59.0,-99.9,29.90,SSE,167,4.0,6.0,-999,-99.99,,,-99.99,,2013-06-24 20:34:00,
2013-06-24 13:47:00,59.0,-99.9,29.90,South,186,4.0,6.0,-999,-99.99,,,-99.99,,2013-06-24 20:47:00,
2013-06-24 14:14:00,58.0,-99.9,29.90,SSE,163,5.0,8.0,-999,-99.99,,,-99.99,,2013-06-24 21:14:00,
2013-06-24 14:26:00,58.0,-99.9,29.90,SSE,165,6.0,8.0,-999,-99.99,,,-99.99,,2013-06-24 21:26:00,
2013-06-24 14:55:00,58.0,-99.9,29.90,South,182,6.0,11.0,-999,-99.99,,,-99.99,,2013-06-24 21:55:00,
2013-06-24 15:51:00,58.0,-99.9,29.89,SSW,203,6.0,13.0,-999,-99.99,,,-99.99,,2013-06-24 22:51:00,
2013-06-24 15:56:00,58.0,-99.9,29.89,SSW,203,6.0,13.0,-999,-99.99,,,-99.99,,2013-06-24 22:56:00,
2013-06-24 16:06:00,59.0,-99.9,29.89,SSW,200,6.0,11.0,-999,-99.99,,,-99.99,,2013-06-24 23:06:00,
2013-06-24 16:27:00,59.0,-99.9,29.89,SSW,204,7.0,11.0,-999,-99.99,,,-99.99,,2013-06-24 23:27:00,
2013-06-24 16:37:00,59.0,-99.9,29.89,SSW,208,7.0,13.0,-999,-99.99,,,-99.99,,2013-06-24 23:37:00,
2013-06-24 17:06:00,59.0,-99.9,29.90,WNW,282,4.0,8.0,-999,-99.99,,,-99.99,,2013-06-25 00:06:00,
2013-06-24 17:14:00,59.0,-99.9,29.90,SW,226,4.0,9.0,-999,-99.99,,,-99.99,,2013-06-25 00:14:00,
2013-06-24 17:24:00,58.0,-99.9,29.90,West,268,5.0,8.0,-999,-99.99,,,-99.99,,2013-06-25 00:24:00,
2013-06-24 17:36:00,58.0,-99.9,29.90,SW,222,4.0,9.0,-999,-99.99,,,-99.99,,2013-06-25 00:36:00,
2013-06-24 17:49:00,58.0,-99.9,29.90,SSW,212,7.0,11.0,-999,-99.99,,,-99.99,,2013-06-25 00:49:00,
2013-06-24 17:56:00,58.0,-99.9,29.90,SSW,209,5.0,9.0,-999,-99.99,,,-99.99,,2013-06-25 00:56:00,
2013-06-24 18:24:00,58.0,-99.9,29.89,SSW,197,9.0,12.0,-999,-99.99,,,-99.99,,2013-06-25 01:24:00,
2013-06-24 18:46:00,58.0,-99.9,29.88,South,179,6.0,11.0,-999,-99.99,,,-99.99,,2013-06-25 01:46:00,
2013-06-24 18:58:00,58.0,-99.9,29.88,SSE,166,5.0,10.0,-999,-99.99,,,-99.99,,2013-06-25 01:58:00,
2013-06-24 19:06:00,58.0,-99.9,29.88,SSW,205,9.0,13.0,-999,-99.99,,,-99.99,,2013-06-25 02:06:00,
2013-06-24 19:49:00,59.0,-99.9,29.89,SSW,204,7.0,12.0,-999,-99.99,,,-99.99,,2013-06-25 02:49:00,
2013-06-24 19:58:00,59.0,-99.9,29.89,SSW,206,9.0,12.0,-999,-99.99,,,-99.99,,2013-06-25 02:58:00,
2013-06-24 20:08:00,58.0,-99.9,29.89,SSW,211,9.0,15.0,-999,-99.99,,,-99.99,,2013-06-25 03:08:00,
2013-06-24 20:35:00,58.0,-99.9,29.89,SSW,210,8.0,16.0,-999,-99.99,,,-99.99,,2013-06-25 03:35:00,
2013-06-24 20:58:00,58.0,-99.9,29.89,SW,220,9.0,14.0,-999,-99.99,,,-99.99,,2013-06-25 03:58:00,
2013-06-24 21:01:00,58.0,-99.9,29.89,SSW,213,11.0,16.0,-999,-99.99,,,-99.99,,2013-06-25 04:01:00,
2013-06-24 21:11:00,59.0,-99.9,29.89,SW,220,6.0,12.0,-999,-99.99,,,-99.99,,2013-06-25 04:11:00,
2013-06-24 21:22:00,59.0,-99.9,29.89,SW,220,6.0,12.0,-999,-99.99,,,-99.99,,2013-06-25 04:22:00,
2013-06-24 21:34:00,59.0,-99.9,29.89,SSW,211,8.0,11.0,-999,-99.99,,,-99.99,,2013-06-25 04:34:00,
2013-06-24 21:43:00,59.0,-99.9,29.90,SSW,204,6.0,10.0,-999,-99.99,,,-99.99,,2013-06-25 04:43:00,
2013-06-24 21:52:00,59.0,-99.9,29.90,SSW,204,6.0,10.0,-999,-99.99,,,-99.99,,2013-06-25 04:52:00,
2013-06-24 22:01:00,59.0,-99.9,29.90,SW,215,7.0,12.0,-999,-99.99,,,-99.99,,2013-06-25 05:01:00,
2013-06-24 22:11:00,59.0,-99.9,29.90,SW,215,9.0,12.0,-999,-99.99,,,-99.99,,2013-06-25 05:11:00,
2013-06-24 22:32:00,59.0,-99.9,29.90,SW,218,9.0,12.0,-999,-99.99,,,-99.99,,2013-06-25 05:32:00,
2013-06-24 22:44:00,59.0,-99.9,29.90,SW,214,7.0,11.0,-999,-99.99,,,-99.99,,2013-06-25 05:44:00,
2013-06-24 23:01:00,60.0,-99.9,29.91,SSW,210,5.0,10.0,-999,-99.99,,,-99.99,,2013-06-25 06:01:00,
2013-06-24 23:34:00,60.0,-99.9,29.91,SW,218,8.0,11.0,-999,-99.99,,,-99.99,,2013-06-25 06:34:00,
2013-06-24 23:43:00,59.0,-99.9,29.90,SSW,202,7.0,11.0,-999,-99.99,,,-99.99,,2013-06-25 06:43:00,
2013-06-24 23:52:00,59.0,-99.9,29.90,SSW,202,7.0,11.0,-999,-99.99,,,-99.99,,2013-06-25 06:52:00,